createdAt,value
2023-01-15T00:01:51.427Z,0.20
2023-01-15T00:04:18.951Z,0.32
2023-01-15T00:06:48.378Z,0.30
2023-01-15T00:09:15.839Z,0.20
2023-01-15T00:11:43.383Z,0.17
2023-01-15T00:14:10.909Z,0.10
2023-01-15T00:16:38.439Z,0.20
2023-01-15T00:19:05.974Z,0.10
2023-01-15T00:21:33.548Z,0.10
2023-01-15T00:24:19.267Z,0.20
2023-01-15T00:27:04.951Z,0.10
2023-01-15T00:29:33.517Z,0.20
2023-01-15T00:32:03.756Z,0.20
2023-01-15T00:34:31.583Z,0.00
2023-01-15T00:36:59.112Z,0.20
2023-01-15T00:39:26.623Z,0.10
2023-01-15T00:41:54.212Z,0.10
2023-01-15T00:44:21.756Z,0.10
2023-01-15T00:46:49.307Z,0.10
2023-01-15T00:49:18.340Z,0.00
2023-01-15T00:51:45.848Z,0.10
2023-01-15T00:54:13.384Z,0.20
2023-01-15T00:56:41.833Z,0.08
2023-01-15T00:59:09.351Z,0.10
2023-01-15T01:01:37.107Z,0.00
2023-01-15T01:04:04.487Z,0.10
2023-01-15T01:06:32.027Z,0.20
2023-01-15T01:08:59.616Z,0.03
2023-01-15T01:11:28.069Z,0.10
2023-01-15T01:13:55.582Z,0.20
2023-01-15T01:16:28.964Z,0.30
2023-01-15T01:18:56.555Z,0.10
2023-01-15T01:21:24.039Z,0.10
2023-01-15T01:23:51.566Z,0.23
2023-01-15T01:26:19.849Z,0.10
2023-01-15T01:28:49.975Z,0.00
2023-01-15T01:31:17.555Z,0.10
2023-01-15T01:33:45.061Z,0.10
2023-01-15T01:36:12.586Z,0.13
2023-01-15T01:38:40.120Z,0.30
2023-01-15T01:41:07.688Z,0.90
2023-01-15T01:44:02.219Z,0.35
2023-01-15T01:46:29.831Z,0.20
2023-01-15T01:49:08.779Z,0.20
2023-01-15T01:51:36.374Z,0.23
2023-01-15T01:54:03.929Z,0.10
2023-01-15T01:56:31.491Z,0.10
2023-01-15T01:59:00.180Z,1.10
2023-01-15T02:01:27.834Z,1.13
2023-01-15T02:03:56.534Z,1.27
2023-01-15T02:06:24.074Z,0.50
2023-01-15T02:08:51.597Z,1.00
2023-01-15T02:11:21.613Z,0.60
2023-01-15T02:14:01.629Z,0.43
2023-01-15T02:16:29.196Z,0.10
2023-01-15T02:18:59.365Z,0.10
2023-01-15T02:21:45.057Z,0.20
2023-01-15T02:24:21.178Z,0.73
2023-01-15T02:27:00.529Z,1.00
2023-01-15T02:29:48.976Z,0.60
2023-01-15T02:32:40.762Z,1.08
2023-01-15T02:35:08.298Z,0.50
2023-01-15T02:37:35.823Z,0.20
2023-01-15T02:40:03.417Z,0.20
2023-01-15T02:42:30.938Z,0.10
2023-01-15T02:44:58.481Z,0.20
2023-01-15T02:47:28.862Z,0.20
2023-01-15T02:49:56.401Z,0.10
2023-01-15T02:52:26.439Z,0.10
2023-01-15T02:54:54.000Z,0.13
2023-01-15T02:57:21.523Z,0.10
2023-01-15T02:59:49.077Z,0.00
2023-01-15T03:02:16.939Z,0.10
2023-01-15T03:04:44.395Z,0.10
2023-01-15T03:07:23.532Z,0.00
2023-01-15T03:09:51.093Z,0.00
2023-01-15T03:12:27.726Z,0.10
2023-01-15T03:15:07.074Z,0.10
2023-01-15T03:17:34.624Z,0.10
2023-01-15T03:20:04.869Z,0.10
2023-01-15T03:22:32.398Z,0.00
2023-01-15T03:25:08.732Z,0.10
2023-01-15T03:27:36.243Z,0.07
2023-01-15T03:30:03.775Z,0.10
2023-01-15T03:32:31.501Z,0.10
2023-01-15T03:34:59.045Z,0.00
2023-01-15T03:37:26.564Z,0.00
2023-01-15T03:39:54.389Z,0.07
2023-01-15T03:42:36.467Z,0.00
2023-01-15T03:45:04.278Z,0.03
2023-01-15T03:47:49.722Z,0.37
2023-01-15T03:50:27.112Z,0.10
2023-01-15T03:52:57.189Z,0.10
2023-01-15T03:55:30.437Z,0.00
2023-01-15T03:57:58.060Z,0.10
2023-01-15T04:00:25.640Z,0.00
2023-01-15T04:02:53.206Z,0.17
2023-01-15T04:05:20.749Z,0.10
2023-01-15T04:07:48.278Z,0.10
2023-01-15T04:10:15.821Z,0.10
2023-01-15T04:12:43.376Z,0.00
2023-01-15T04:15:10.892Z,0.10
2023-01-15T04:17:38.477Z,0.00
2023-01-15T04:20:06.132Z,0.10
2023-01-15T04:22:33.604Z,0.10
2023-01-15T04:25:01.168Z,0.00
2023-01-15T04:27:28.722Z,0.00
2023-01-15T04:29:56.316Z,0.00
2023-01-15T04:32:23.843Z,0.10
2023-01-15T04:34:51.399Z,0.00
2023-01-15T04:37:18.923Z,0.07
2023-01-15T04:39:46.487Z,0.10
2023-01-15T04:42:31.871Z,0.00
2023-01-15T04:44:59.415Z,0.00
2023-01-15T04:47:26.931Z,0.00
2023-01-15T04:49:54.478Z,0.00
2023-01-15T04:52:21.994Z,0.00
2023-01-15T04:54:49.521Z,0.00
2023-01-15T04:57:17.083Z,0.00
2023-01-15T04:59:44.618Z,0.00
2023-01-15T05:02:15.231Z,0.00
2023-01-15T05:04:40.736Z,0.00
2023-01-15T05:07:09.535Z,0.00
2023-01-15T05:09:37.069Z,0.00
2023-01-15T05:12:05.386Z,0.07
2023-01-15T05:14:32.903Z,0.00
2023-01-15T05:17:00.968Z,0.00
2023-01-15T05:19:28.828Z,0.00
2023-01-15T05:21:56.344Z,0.00
2023-01-15T05:24:23.877Z,0.00
2023-01-15T05:26:51.439Z,0.00
2023-01-15T05:29:18.962Z,0.00
2023-01-15T05:31:46.701Z,0.00
2023-01-15T05:34:14.310Z,0.10
2023-01-15T05:36:41.807Z,0.03
2023-01-15T05:39:09.706Z,0.10
2023-01-15T05:41:49.388Z,0.10
2023-01-15T05:44:19.645Z,0.10
2023-01-15T05:46:47.208Z,0.10
2023-01-15T05:49:14.727Z,0.10
2023-01-15T05:51:42.313Z,0.03
2023-01-15T05:54:09.834Z,0.10
2023-01-15T05:56:37.664Z,0.20
2023-01-15T05:59:05.195Z,0.10
2023-01-15T06:01:32.792Z,0.10
2023-01-15T06:04:00.366Z,0.20
2023-01-15T06:06:27.833Z,0.10
2023-01-15T06:08:55.352Z,0.00
2023-01-15T06:11:22.923Z,0.10
2023-01-15T06:13:50.771Z,0.20
2023-01-15T06:16:18.330Z,0.20
2023-01-15T06:18:45.847Z,0.00
2023-01-15T06:21:15.019Z,0.30
2023-01-15T06:23:42.542Z,0.10
2023-01-15T06:26:14.417Z,0.10
2023-01-15T06:28:41.953Z,0.10
2023-01-15T06:31:09.519Z,0.47
2023-01-15T06:33:37.284Z,0.40
2023-01-15T06:36:04.816Z,0.20
2023-01-15T06:38:32.342Z,0.27
2023-01-15T06:41:03.035Z,0.30
2023-01-15T06:43:48.657Z,0.20
2023-01-15T06:46:34.363Z,0.23
2023-01-15T06:49:01.820Z,0.50
2023-01-15T06:51:31.147Z,0.20
2023-01-15T06:53:57.027Z,0.30
2023-01-15T06:56:24.557Z,0.33
2023-01-15T06:58:52.080Z,0.30
2023-01-15T07:01:19.737Z,0.20
2023-01-15T07:03:47.202Z,0.30
2023-01-15T07:06:14.723Z,0.27
2023-01-15T07:08:42.383Z,0.17
2023-01-15T07:11:11.039Z,0.20
2023-01-15T07:13:38.587Z,0.20
2023-01-15T07:16:06.219Z,0.20
2023-01-15T07:18:33.700Z,0.17
2023-01-15T07:21:01.234Z,0.10
2023-01-15T07:23:28.805Z,0.20
2023-01-15T07:25:56.546Z,0.17
2023-01-15T07:28:24.074Z,0.20
2023-01-15T07:30:52.178Z,0.10
2023-01-15T07:33:19.705Z,0.20
2023-01-15T07:35:48.413Z,0.60
2023-01-15T07:38:15.980Z,0.17
2023-01-15T07:40:43.509Z,0.30
2023-01-15T07:43:29.170Z,0.30
2023-01-15T07:46:14.572Z,0.20
2023-01-15T07:48:59.933Z,0.30
2023-01-15T07:51:27.457Z,0.00
2023-01-15T07:53:55.007Z,0.10
2023-01-15T07:56:22.852Z,0.10
2023-01-15T07:58:50.379Z,0.17
2023-01-15T08:01:18.302Z,0.10
2023-01-15T08:03:46.136Z,0.10
2023-01-15T08:06:13.646Z,0.15
2023-01-15T08:08:41.182Z,0.20
2023-01-15T08:11:26.633Z,0.10
2023-01-15T08:14:12.064Z,0.10
2023-01-15T08:16:39.731Z,0.10
2023-01-15T08:19:07.197Z,0.00
2023-01-15T08:21:34.729Z,0.00
2023-01-15T08:24:03.192Z,0.10
2023-01-15T08:26:30.702Z,0.10
2023-01-15T08:28:59.317Z,8.53
2023-01-15T08:31:25.809Z,0.00
2023-01-15T08:33:53.322Z,0.00
2023-01-15T08:36:20.848Z,0.10
2023-01-15T08:38:51.715Z,0.10
2023-01-15T08:41:19.237Z,0.10
2023-01-15T08:43:46.745Z,0.17
2023-01-15T08:46:14.308Z,0.20
2023-01-15T08:48:41.841Z,0.10
2023-01-15T08:51:09.366Z,0.20
2023-01-15T08:53:36.930Z,0.20
2023-01-15T08:56:04.478Z,0.33
2023-01-15T08:58:32.006Z,0.30
2023-01-15T09:01:05.654Z,0.25
2023-01-15T09:03:33.116Z,0.20
2023-01-15T09:06:00.710Z,2.20
2023-01-15T09:08:28.377Z,1.27
2023-01-15T09:10:58.551Z,3.40
2023-01-15T09:13:26.103Z,3.63
2023-01-15T09:15:53.656Z,2.60
2023-01-15T09:18:21.199Z,1.60
2023-01-15T09:20:48.721Z,0.95
2023-01-15T09:23:16.287Z,7.60
2023-01-15T09:25:58.720Z,5.80
2023-01-15T09:28:26.489Z,3.70
2023-01-15T09:30:54.061Z,2.37
2023-01-15T09:33:21.603Z,2.50
2023-01-15T09:35:49.168Z,6.60
2023-01-15T09:38:16.716Z,6.77
2023-01-15T09:40:55.985Z,3.17
2023-01-15T09:43:50.154Z,1.27
2023-01-15T09:46:18.109Z,2.80
2023-01-15T09:48:51.277Z,2.03
2023-01-15T09:51:33.698Z,3.37
2023-01-15T09:54:12.941Z,1.80
2023-01-15T09:56:40.521Z,2.47
2023-01-15T09:59:08.051Z,0.67
2023-01-15T10:01:35.662Z,1.23
2023-01-15T10:04:33.421Z,1.23
2023-01-15T10:07:07.017Z,0.60
2023-01-15T10:09:34.550Z,1.27
2023-01-15T10:12:25.798Z,1.23
2023-01-15T10:14:55.790Z,0.68
2023-01-15T10:17:29.402Z,0.70
2023-01-15T10:19:57.483Z,3.20
2023-01-15T10:22:25.011Z,0.90
2023-01-15T10:24:58.260Z,0.70
2023-01-15T10:27:25.836Z,1.60
2023-01-15T10:30:14.115Z,0.90
2023-01-15T10:33:02.248Z,0.43
2023-01-15T10:35:47.938Z,0.43
2023-01-15T10:38:18.385Z,0.77
2023-01-15T10:40:54.699Z,0.77
2023-01-15T10:43:43.554Z,1.07
2023-01-15T10:46:14.002Z,0.70
2023-01-15T10:48:56.021Z,0.60
2023-01-15T10:51:38.680Z,1.27
2023-01-15T10:54:08.666Z,0.90
2023-01-15T10:56:42.192Z,0.90
2023-01-15T10:59:33.681Z,0.77
2023-01-15T11:02:01.329Z,0.87
2023-01-15T11:04:28.746Z,1.33
2023-01-15T11:06:56.338Z,1.30
2023-01-15T11:09:23.877Z,1.10
2023-01-15T11:12:00.210Z,1.10
2023-01-15T11:14:54.488Z,0.70
2023-01-15T11:17:41.030Z,0.50
2023-01-15T11:20:11.400Z,0.83
2023-01-15T11:22:38.933Z,0.63
2023-01-15T11:25:06.518Z,0.70
2023-01-15T11:27:34.067Z,0.90
2023-01-15T11:30:01.601Z,1.43
2023-01-15T11:32:34.591Z,1.00
2023-01-15T11:35:02.126Z,0.80
2023-01-15T11:37:29.671Z,0.97
2023-01-15T11:39:57.247Z,0.90
2023-01-15T11:42:42.639Z,1.08
2023-01-15T11:45:30.994Z,1.17
2023-01-15T11:48:16.650Z,1.00
2023-01-15T11:50:56.151Z,1.47
2023-01-15T11:53:26.121Z,1.00
2023-01-15T11:55:56.333Z,0.60
2023-01-15T11:58:23.896Z,0.73
2023-01-15T12:00:51.438Z,0.80
2023-01-15T12:03:18.990Z,0.90
2023-01-15T12:05:58.634Z,1.17
2023-01-15T12:08:34.891Z,1.67
2023-01-15T12:11:26.829Z,1.20
2023-01-15T12:13:53.498Z,0.90
2023-01-15T12:16:41.988Z,1.20
2023-01-15T12:19:18.265Z,0.83
2023-01-15T12:21:58.025Z,0.90
2023-01-15T12:24:43.704Z,1.60
2023-01-15T12:27:38.251Z,0.77
2023-01-15T12:30:29.749Z,1.13
2023-01-15T12:32:57.569Z,1.10
2023-01-15T12:35:27.611Z,1.37
2023-01-15T12:37:55.155Z,1.50
2023-01-15T12:40:22.803Z,0.77
2023-01-15T12:43:08.575Z,0.93
2023-01-15T12:45:36.997Z,0.90
2023-01-15T12:48:25.671Z,1.57
2023-01-15T12:50:53.238Z,0.80
2023-01-15T12:53:20.799Z,1.30
2023-01-15T12:56:03.160Z,0.77
2023-01-15T12:58:39.089Z,1.40
2023-01-15T13:01:43.404Z,1.10
2023-01-15T13:04:28.718Z,0.70
2023-01-15T13:06:59.743Z,0.73
2023-01-15T13:09:41.711Z,0.90
2023-01-15T13:12:15.028Z,1.03
2023-01-15T13:14:44.807Z,1.12
2023-01-15T13:17:31.353Z,0.90
2023-01-15T13:20:19.920Z,1.00
2023-01-15T13:23:05.138Z,0.97
2023-01-15T13:25:41.473Z,0.90
2023-01-15T13:28:09.027Z,1.07
2023-01-15T13:30:47.575Z,0.80
2023-01-15T13:33:24.449Z,0.80
2023-01-15T13:35:52.315Z,0.97
2023-01-15T13:38:19.906Z,0.93
2023-01-15T13:40:47.451Z,1.60
2023-01-15T13:43:15.015Z,0.70
2023-01-15T13:45:42.560Z,1.40
2023-01-15T13:48:18.635Z,1.00
2023-01-15T13:50:58.152Z,0.60
2023-01-15T13:53:31.634Z,1.00
2023-01-15T13:56:05.350Z,1.00
2023-01-15T13:58:32.930Z,0.80
2023-01-15T14:01:03.143Z,1.25
2023-01-15T14:03:30.689Z,0.83
2023-01-15T14:05:58.234Z,1.00
2023-01-15T14:08:28.778Z,1.30
2023-01-15T14:10:56.347Z,0.87
2023-01-15T14:13:32.431Z,1.00
2023-01-15T14:16:06.127Z,0.80
2023-01-15T14:18:51.544Z,1.00
2023-01-15T14:21:37.011Z,0.80
2023-01-15T14:24:28.601Z,0.67
2023-01-15T14:27:05.055Z,0.73
2023-01-15T14:29:49.169Z,0.80
2023-01-15T14:32:25.261Z,0.98
2023-01-15T14:35:01.663Z,0.67
2023-01-15T14:37:32.504Z,1.00
2023-01-15T14:40:00.057Z,1.08
2023-01-15T14:42:45.720Z,1.10
2023-01-15T14:45:13.265Z,1.10
2023-01-15T14:47:52.960Z,0.80
2023-01-15T14:50:41.117Z,0.80
2023-01-15T14:53:11.831Z,1.10
2023-01-15T14:55:41.076Z,0.90
2023-01-15T14:58:08.638Z,0.70
2023-01-15T15:00:36.932Z,0.70
2023-01-15T15:03:04.404Z,1.13
2023-01-15T15:05:31.919Z,0.80
2023-01-15T15:07:59.498Z,1.23
2023-01-15T15:10:27.047Z,1.10
2023-01-15T15:13:18.767Z,1.37
2023-01-15T15:16:16.571Z,0.80
2023-01-15T15:18:49.568Z,1.07
2023-01-15T15:21:23.273Z,0.98
2023-01-15T15:23:56.736Z,1.30
2023-01-15T15:26:30.106Z,1.07
2023-01-15T15:29:00.188Z,1.30
2023-01-15T15:31:30.064Z,0.93
2023-01-15T15:33:57.505Z,1.10
2023-01-15T15:36:25.023Z,1.10
2023-01-15T15:38:55.249Z,0.90
2023-01-15T15:41:22.791Z,0.87
2023-01-15T15:44:08.182Z,1.40
2023-01-15T15:46:53.586Z,0.77
2023-01-15T15:49:21.157Z,1.10
2023-01-15T15:51:51.367Z,1.40
2023-01-15T15:54:21.580Z,1.52
2023-01-15T15:56:55.182Z,1.50
2023-01-15T15:59:31.757Z,0.60
2023-01-15T16:01:59.371Z,1.27
2023-01-15T16:04:26.871Z,1.00
2023-01-15T16:06:54.383Z,0.90
2023-01-15T16:09:21.928Z,0.93
2023-01-15T16:11:49.563Z,1.08
2023-01-15T16:14:16.991Z,1.10
2023-01-15T16:16:44.585Z,1.53
2023-01-15T16:19:13.291Z,0.90
2023-01-15T16:21:40.817Z,0.90
2023-01-15T16:24:08.307Z,1.47
2023-01-15T16:26:35.878Z,1.40
2023-01-15T16:29:03.386Z,1.65
2023-01-15T16:31:36.688Z,1.10
2023-01-15T16:34:05.155Z,1.03
2023-01-15T16:36:41.339Z,1.10
2023-01-15T16:39:08.893Z,1.17
2023-01-15T16:41:39.102Z,1.73
2023-01-15T16:44:06.663Z,1.83
2023-01-15T16:46:34.206Z,1.97
2023-01-15T16:49:19.776Z,1.40
2023-01-15T16:51:47.340Z,1.20
2023-01-15T16:54:30.289Z,1.50
2023-01-15T16:57:00.508Z,1.10
2023-01-15T16:59:28.040Z,1.03
2023-01-15T17:01:58.182Z,1.73
2023-01-15T17:04:34.372Z,1.33
2023-01-15T17:07:16.564Z,1.10
2023-01-15T17:09:44.097Z,1.10
2023-01-15T17:12:23.447Z,0.83
2023-01-15T17:14:50.967Z,1.30
2023-01-15T17:17:24.439Z,0.97
2023-01-15T17:19:51.998Z,2.30
2023-01-15T17:22:22.543Z,1.10
2023-01-15T17:24:50.094Z,0.90
2023-01-15T17:27:17.655Z,1.57
2023-01-15T17:29:45.154Z,1.40
2023-01-15T17:32:12.688Z,1.00
2023-01-15T17:34:40.234Z,1.70
2023-01-15T17:37:07.759Z,1.65
2023-01-15T17:39:38.218Z,1.30
2023-01-15T17:42:14.727Z,1.03
2023-01-15T17:44:42.252Z,1.37
2023-01-15T17:47:09.759Z,1.33
2023-01-15T17:49:37.340Z,1.17
2023-01-15T17:52:04.849Z,1.60
2023-01-15T17:54:50.226Z,1.50
2023-01-15T17:57:35.733Z,2.05
2023-01-15T18:00:21.186Z,1.65
2023-01-15T18:03:06.678Z,1.10
2023-01-15T18:05:35.109Z,1.27
2023-01-15T18:08:02.631Z,0.87
2023-01-15T18:10:30.151Z,1.03
2023-01-15T18:12:57.714Z,1.10
2023-01-15T18:15:25.254Z,1.03
2023-01-15T18:17:52.753Z,0.87
2023-01-15T18:20:20.334Z,0.83
2023-01-15T18:22:47.848Z,1.12
2023-01-15T18:25:15.374Z,0.80
2023-01-15T18:27:42.949Z,1.00
2023-01-15T18:30:10.554Z,1.20
2023-01-15T18:32:38.108Z,1.07
2023-01-15T18:35:05.683Z,0.73
2023-01-15T18:37:33.197Z,1.60
2023-01-15T18:40:00.734Z,1.13
2023-01-15T18:42:46.062Z,1.17
2023-01-15T18:45:31.626Z,0.80
2023-01-15T18:47:59.446Z,1.03
2023-01-15T18:50:26.966Z,0.90
2023-01-15T18:52:54.479Z,0.90
2023-01-15T18:55:22.082Z,1.20
2023-01-15T18:57:49.600Z,1.20
2023-01-15T19:00:17.127Z,1.00
2023-01-15T19:02:44.672Z,1.50
2023-01-15T19:05:12.226Z,1.40
2023-01-15T19:07:39.772Z,0.97
2023-01-15T19:10:07.376Z,2.00
2023-01-15T19:12:34.926Z,0.90
2023-01-15T19:15:20.391Z,1.27
2023-01-15T19:18:05.609Z,1.47
2023-01-15T19:20:33.183Z,1.62
2023-01-15T19:23:01.665Z,0.90
2023-01-15T19:25:28.229Z,1.57
2023-01-15T19:27:55.798Z,1.30
2023-01-15T19:30:23.316Z,2.37
2023-01-15T19:32:50.830Z,1.92
2023-01-15T19:35:18.403Z,1.20
2023-01-15T19:37:45.925Z,1.13
2023-01-15T19:40:19.120Z,1.70
2023-01-15T19:42:58.470Z,1.80
2023-01-15T19:45:43.926Z,2.10
2023-01-15T19:48:32.473Z,1.57
2023-01-15T19:51:00.003Z,1.80
2023-01-15T19:53:27.536Z,1.33
2023-01-15T19:55:55.093Z,1.43
2023-01-15T19:58:22.615Z,1.30
2023-01-15T20:00:50.144Z,1.87
2023-01-15T20:03:17.689Z,1.27
2023-01-15T20:05:45.223Z,1.50
2023-01-15T20:08:12.726Z,1.37
2023-01-15T20:10:40.299Z,1.00
2023-01-15T20:13:25.577Z,1.40
2023-01-15T20:15:53.159Z,1.13
2023-01-15T20:18:20.689Z,1.63
2023-01-15T20:20:48.218Z,1.20
2023-01-15T20:23:15.785Z,1.60
2023-01-15T20:25:43.350Z,1.53
2023-01-15T20:28:10.840Z,1.40
2023-01-15T20:30:38.658Z,1.50
2023-01-15T20:33:06.174Z,2.20
2023-01-15T20:35:33.724Z,1.40
2023-01-15T20:38:02.123Z,1.67
2023-01-15T20:40:29.661Z,1.30
2023-01-15T20:43:14.986Z,1.07
2023-01-15T20:45:42.538Z,1.90
2023-01-15T20:48:12.452Z,0.80
2023-01-15T20:50:43.249Z,1.10
2023-01-15T20:53:10.795Z,1.30
2023-01-15T20:55:54.777Z,0.90
2023-01-15T20:58:08.685Z,1.20
2023-01-15T21:00:36.218Z,1.30
2023-01-15T21:03:03.732Z,1.30
2023-01-15T21:05:31.524Z,1.10
2023-01-15T21:07:59.047Z,1.50
2023-01-15T21:10:26.574Z,1.03
2023-01-15T21:12:54.188Z,1.13
2023-01-15T21:15:21.717Z,1.00
2023-01-15T21:17:49.217Z,0.70
2023-01-15T21:20:17.666Z,1.43
2023-01-15T21:22:45.198Z,1.15
2023-01-15T21:25:12.708Z,1.03
2023-01-15T21:27:40.270Z,0.93
2023-01-15T21:30:07.845Z,0.77
2023-01-15T21:32:35.356Z,1.00
2023-01-15T21:35:02.929Z,1.55
2023-01-15T21:37:30.440Z,1.43
2023-01-15T21:39:57.961Z,1.20
2023-01-15T21:42:43.120Z,0.90
2023-01-15T21:45:10.640Z,1.30
2023-01-15T21:47:38.153Z,1.33
2023-01-15T21:50:05.716Z,0.80
2023-01-15T21:52:33.245Z,0.90
2023-01-15T21:55:00.765Z,1.10
2023-01-15T21:57:31.002Z,0.90
2023-01-15T21:59:58.524Z,1.17
2023-01-15T22:02:26.064Z,0.93
2023-01-15T22:04:53.618Z,1.57
2023-01-15T22:07:21.129Z,1.50
2023-01-15T22:09:48.645Z,1.77
2023-01-15T22:12:16.206Z,1.20
2023-01-15T22:14:43.750Z,1.53
2023-01-15T22:17:11.267Z,1.13
2023-01-15T22:19:38.826Z,1.10
2023-01-15T22:22:06.343Z,1.40
2023-01-15T22:24:33.887Z,1.00
2023-01-15T22:27:01.475Z,1.03
2023-01-15T22:29:31.485Z,0.80
2023-01-15T22:31:59.007Z,1.43
2023-01-15T22:34:26.810Z,1.10
2023-01-15T22:36:54.333Z,1.27
2023-01-15T22:39:21.842Z,1.40
2023-01-15T22:42:07.253Z,1.00
2023-01-15T22:44:34.790Z,2.30
2023-01-15T22:47:02.331Z,1.03
2023-01-15T22:49:29.863Z,1.30
2023-01-15T22:51:57.387Z,1.33
2023-01-15T22:54:24.891Z,1.47
2023-01-15T22:56:52.437Z,1.30
2023-01-15T22:59:19.953Z,1.57
2023-01-15T23:01:47.653Z,1.07
2023-01-15T23:04:18.104Z,1.27
2023-01-15T23:06:45.614Z,1.20
2023-01-15T23:09:13.133Z,0.83
2023-01-15T23:11:40.689Z,1.30
2023-01-15T23:14:08.223Z,1.20
2023-01-15T23:16:35.743Z,1.60
2023-01-15T23:19:03.314Z,1.60
2023-01-15T23:21:30.834Z,1.10
2023-01-15T23:23:58.342Z,1.20
2023-01-15T23:26:26.160Z,0.90
2023-01-15T23:28:53.694Z,0.83
2023-01-15T23:31:21.261Z,1.00
2023-01-15T23:33:48.766Z,1.55
2023-01-15T23:36:16.283Z,1.30
2023-01-15T23:38:43.803Z,1.33
2023-01-15T23:41:11.359Z,1.20
2023-01-15T23:43:56.766Z,0.93
2023-01-15T23:46:33.477Z,1.70
2023-01-15T23:49:00.936Z,1.10
2023-01-15T23:51:28.427Z,1.03
2023-01-15T23:53:55.991Z,0.70
2023-01-15T23:56:23.505Z,1.00
2023-01-15T23:58:51.041Z,1.43
